Time;durP1;ratioP1;P1;durP2;ratioP2;P2;SDS_P1;SDS_P2;PMS_P1;PMS_P2;Temp;Humidity;BMP_temperature;BMP_pressure;BME280_temperature;BME280_humidity;BME280_pressure;Samples;Min_cycle;Max_cycle;Signal;HPM_P1;HPM_P2
2021/12/28 00:01:24;;;;;;;;;;;;;;;4.36;78.19;97901.72;4954555;28;20377;-88
2021/12/28 00:03:50;;;;;;;;;;;;;;;4.35;78.08;97889.53;4955606;28;19929;-90
2021/12/28 00:06:15;;;;;;;;;;;;;;;4.38;78.25;97883.31;4972965;28;19918;-89
2021/12/28 00:08:41;;;;;;;;;;;;;;;4.40;78.07;97878.81;4973115;28;20314;-91
2021/12/28 00:11:07;;;;;;;;;;;;;;;4.41;77.92;97872.66;4955793;28;19930;-89
2021/12/28 00:13:33;;;;;;;;;;;;;;;4.41;77.94;97877.06;4955756;28;19922;-89
2021/12/28 00:18:33;;;;;;;;;;;;;;;4.50;78.04;97866.97;4972246;28;19922;-89
2021/12/28 00:20:59;;;;;;;;;;;;;;;4.53;78.18;97871.22;4972786;28;19922;-88
2021/12/28 00:23:30;;;;;;;;;;;;;;;4.54;78.18;97879.00;4955690;28;19922;-89
2021/12/28 00:25:56;;;;;;;;;;;;;;;4.57;78.21;97874.56;4963213;28;20001;-89
2021/12/28 00:28:21;;;;;;;;;;;;;;;4.58;78.23;97874.47;4972891;28;20326;-90
2021/12/28 00:30:50;;;;;;;;;;;;;;;4.61;78.12;97862.97;4971053;28;19957;-89
2021/12/28 00:33:16;;;;;;;;;;;;;;;4.64;77.95;97861.06;4956987;28;19929;-89
2021/12/28 00:35:42;;;;;;;;;;;;;;;4.62;78.24;97856.81;4967518;28;19968;-89
2021/12/28 00:38:09;;;;;;;;;;;;;;;4.68;79.17;97859.13;4959503;28;19919;-89
2021/12/28 00:40:34;;;;;;;;;;;;;;;4.70;79.84;97859.91;4958781;28;19922;-89
2021/12/28 00:43:00;;;;;;;;;;;;;;;4.71;80.00;97851.94;4959421;28;19925;-87
2021/12/28 00:45:25;;;;;;;;;;;;;;;4.74;80.01;97850.97;4975347;28;20665;-90
2021/12/28 00:47:51;;;;;;;;;;;;;;;4.76;80.24;97850.88;4976664;28;20012;-89
2021/12/28 00:50:18;;;;;;;;;;;;;;;4.78;80.21;97859.53;4976601;28;20061;-88
2021/12/28 00:52:43;;;;;;;;;;;;;;;4.89;80.81;97847.53;4958384;28;19925;-89
2021/12/28 00:55:09;;;;;;;;;;;;;;;5.06;82.57;97849.31;4959333;28;19918;-89
2021/12/28 06:12:51;;;;;;;;;;;;;;;2.78;100.00;97485.03;4936830;29;19934;-88
2021/12/28 06:15:17;;;;;;;;;;;;;;;2.82;100.00;97474.31;4937571;29;20374;-86
2021/12/28 06:17:42;;;;;;;;;;;;;;;2.86;100.00;97481.13;4935188;29;20294;-87
2021/12/28 06:20:08;;;;;;;;;;;;;;;2.94;100.00;97483.38;4935531;29;19923;-90
2021/12/28 06:22:34;;;;;;;;;;;;;;;2.96;100.00;97485.91;4936651;29;19926;-88
2021/12/28 06:24:59;;;;;;;;;;;;;;;2.95;100.00;97487.66;4933008;29;20346;-88
2021/12/28 06:27:24;;;;;;;;;;;;;;;2.97;100.00;97495.44;4934994;29;20010;-88
2021/12/28 06:29:50;;;;;;;;;;;;;;;2.95;100.00;97498.13;4934175;29;19923;-91
2021/12/28 06:32:15;;;;;;;;;;;;;;;2.96;100.00;97499.00;4936366;29;19929;-87
2021/12/28 06:34:41;;;;;;;;;;;;;;;2.96;100.00;97501.59;4936470;29;20297;-88
2021/12/28 06:37:06;;;;;;;;;;;;;;;2.97;100.00;97508.50;4936265;29;19958;-88
2021/12/28 06:39:31;;;;;;;;;;;;;;;2.98;100.00;97511.06;4933809;29;20396;-86
2021/12/28 06:41:57;;;;;;;;;;;;;;;2.99;100.00;97514.53;4934607;29;19919;-91
2021/12/28 06:44:22;;;;;;;;;;;;;;;3.00;100.00;97519.69;4934116;29;19930;-88
2021/12/28 06:46:47;;;;;;;;;;;;;;;3.01;100.00;97516.16;4934496;29;19927;-88
2021/12/28 06:49:13;;;;;;;;;;;;;;;3.05;100.00;97525.56;4934151;29;19927;-87
2021/12/28 06:51:39;;;;;;;;;;;;;;;3.08;100.00;97521.94;4935665;29;19934;-88
2021/12/28 06:54:04;;;;;;;;;;;;;;;3.07;100.00;97526.31;4932739;29;19923;-88
2021/12/28 06:56:30;;;;;;;;;;;;;;;3.14;100.00;97533.88;4935869;29;19923;-88
2021/12/28 06:58:55;;;;;;;;;;;;;;;3.15;99.53;97535.59;4934435;29;20254;-88
2021/12/28 07:01:22;;;;;;;;;;;;;;;3.21;98.75;97535.28;4934452;29;19929;-89
2021/12/28 07:03:48;;;;;;;;;;;;;;;3.23;97.70;97533.44;4934263;29;19931;-89
2021/12/28 07:06:16;;;;;;;;;;;;;;;3.24;96.67;97540.38;4934369;29;19929;-89
2021/12/28 07:08:41;;;;;;;;;;;;;;;3.25;95.89;97540.28;4932800;29;19919;-88
2021/12/28 07:11:06;;;;;;;;;;;;;;;3.28;94.98;97547.13;4942370;28;19922;-88
2021/12/28 07:13:32;;;;;;;;;;;;;;;3.34;94.12;97541.59;4956687;28;20328;-88
2021/12/28 07:15:57;;;;;;;;;;;;;;;3.57;96.10;97555.31;4956673;28;19918;-91
2021/12/28 07:18:22;;;;;;;;;;;;;;;3.70;97.98;97550.31;4974182;28;20009;-88
2021/12/28 07:20:48;;;;;;;;;;;;;;;3.71;97.97;97558.09;4973805;28;19933;-87
2021/12/28 07:23:14;;;;;;;;;;;;;;;3.70;97.79;97555.53;4955357;28;19977;-85
2021/12/28 07:25:39;;;;;;;;;;;;;;;3.70;97.35;97561.66;4956327;28;20258;-86
2021/12/28 07:28:05;;;;;;;;;;;;;;;3.69;96.94;97567.81;4974056;28;19925;-85
2021/12/28 07:30:30;;;;;;;;;;;;;;;3.68;96.58;97581.81;4973587;28;19987;-87
2021/12/28 07:32:55;;;;;;;;;;;;;;;3.67;96.28;97579.28;4973547;28;19918;-86
2021/12/28 07:35:21;;;;;;;;;;;;;;;3.68;96.22;97588.84;4973663;28;19918;-89
2021/12/28 07:37:46;;;;;;;;;;;;;;;3.72;95.82;97588.63;4956092;28;19922;-88
2021/12/28 07:40:11;;;;;;;;;;;;;;;3.70;95.71;97595.72;4954941;28;19925;-88
2021/12/28 07:42:38;;;;;;;;;;;;;;;3.72;95.60;97591.22;4973438;28;20322;-89
2021/12/28 07:45:04;;;;;;;;;;;;;;;3.75;95.22;97603.31;4973180;28;19918;-88
2021/12/28 07:47:29;;;;;;;;;;;;;;;3.79;95.22;97603.09;4974076;28;19929;-89
2021/12/28 07:49:54;;;;;;;;;;;;;;;3.80;95.01;97610.03;4973461;28;20305;-88
2021/12/28 07:52:20;;;;;;;;;;;;;;;3.81;94.75;97608.25;4973606;28;19930;-87
2021/12/28 07:54:45;;;;;;;;;;;;;;;3.78;94.36;97617.13;4972120;28;20404;-87
2021/12/28 07:57:10;;;;;;;;;;;;;;;3.85;94.24;97616.81;4973244;28;20016;-86
2021/12/28 07:59:35;;;;;;;;;;;;;;;3.87;93.87;97628.06;4973296;28;19925;-86
2021/12/28 08:02:01;;;;;;;;;;;;;;;3.87;93.40;97635.91;4955907;28;19949;-86
2021/12/28 09:31:11;;;;;;;;;;;;;;;4.27;84.48;97738.78;4952358;28;19973;-86
2021/12/28 09:33:36;;;;;;;;;;;;;;;4.29;84.77;97726.41;4965104;28;19926;-87
2021/12/28 09:36:02;;;;;;;;;;;;;;;5.40;91.08;97728.53;4948101;28;19993;-81
2021/12/28 09:38:27;;;;;;;;;;;;;;;5.18;92.99;97728.84;4965698;28;19969;-89
2021/12/28 09:40:54;;;;;;;;;;;;;;;4.84;92.28;97741.97;4964886;28;19961;-90
2021/12/28 09:43:19;;;;;;;;;;;;;;;4.80;90.75;97750.06;4962247;28;19977;-84
2021/12/28 09:45:44;;;;;;;;;;;;;;;4.79;89.85;97746.63;4961175;28;19969;-89
2021/12/28 09:48:10;;;;;;;;;;;;;;;4.73;88.84;97741.69;4964600;28;19922;-80
2021/12/28 09:50:39;;;;;;;;;;;;;;;6.27;96.10;97732.44;4964116;28;19922;-90
2021/12/28 09:53:04;;;;;;;;;;;;;;;6.14;97.33;97742.84;4979163;28;19922;-90
2021/12/28 09:55:29;;;;;;;;;;;;;;;5.49;96.76;97745.56;4965703;28;19932;-90
2021/12/28 09:57:55;;;;;;;;;;;;;;;5.18;96.14;97742.81;4965551;28;20571;-89
2021/12/28 10:00:22;;;;;;;;;;;;;;;5.11;94.99;97743.25;4963514;28;19926;-88
2021/12/28 10:02:47;;;;;;;;;;;;;;;5.05;94.09;97736.53;4964153;28;19937;-86
2021/12/28 10:05:21;;;;;;;;;;;;;;;5.01;93.10;97745.47;4965484;28;20274;-82
2021/12/28 10:07:54;;;;;;;;;;;;;;;5.00;92.41;97735.94;4962196;28;19929;-87
2021/12/28 10:10:20;;;;;;;;;;;;;;;4.97;91.58;97744.78;4978372;28;19958;-88
2021/12/28 10:12:49;;;;;;;;;;;;;;;4.96;91.12;97740.47;4964168;28;19931;-88
2021/12/28 10:15:16;;;;;;;;;;;;;;;4.97;90.61;97733.47;4955289;28;20297;-90
2021/12/28 10:17:43;;;;;;;;;;;;;;;4.99;90.16;97734.22;4964108;28;19919;-88
2021/12/28 10:20:19;;;;;;;;;;;;;;;4.95;89.69;97732.72;4962528;28;19922;-89
2021/12/28 10:22:49;;;;;;;;;;;;;;;4.95;89.34;97730.09;4964669;28;20346;-89
2021/12/28 10:25:19;;;;;;;;;;;;;;;4.92;88.90;97728.44;4965138;28;20013;-90
2021/12/28 10:27:49;;;;;;;;;;;;;;;4.97;88.79;97726.44;4977075;28;19926;-89
2021/12/28 10:30:17;;;;;;;;;;;;;;;5.00;88.36;97722.81;4950373;28;19933;-91
2021/12/28 10:32:46;;;;;;;;;;;;;;;4.96;88.21;97731.75;4951309;28;20440;-90
2021/12/28 10:35:14;;;;;;;;;;;;;;;5.01;88.29;97734.97;4935194;29;19930;-89
2021/12/28 10:37:43;;;;;;;;;;;;;;;5.01;87.91;97737.59;4931874;29;19966;-90
2021/12/28 10:40:10;;;;;;;;;;;;;;;5.01;87.83;97733.22;4936859;29;20025;-89
2021/12/28 10:42:36;;;;;;;;;;;;;;;5.02;87.74;97734.06;4950482;29;19937;-91
2021/12/28 10:45:01;;;;;;;;;;;;;;;5.02;87.66;97731.44;4933033;29;20382;-89
2021/12/28 10:47:27;;;;;;;;;;;;;;;5.00;87.26;97728.06;4936420;29;20395;-91
2021/12/28 10:49:52;;;;;;;;;;;;;;;5.03;87.12;97739.22;4933083;29;20361;-89
2021/12/28 10:52:26;;;;;;;;;;;;;;;5.06;87.19;97736.44;4933548;29;19926;-90
2021/12/28 10:55:11;;;;;;;;;;;;;;;5.09;87.35;97727.56;4950188;28;19974;-88
2021/12/28 10:57:40;;;;;;;;;;;;;;;5.12;87.38;97732.63;4935338;29;19974;-91
2021/12/28 11:00:26;;;;;;;;;;;;;;;5.13;87.35;97742.22;4949021;28;19926;-91
2021/12/28 11:03:12;;;;;;;;;;;;;;;5.13;87.05;97734.34;4950281;28;19926;-89
2021/12/28 11:05:37;;;;;;;;;;;;;;;5.12;86.76;97732.63;4931837;29;19922;-87
2021/12/28 11:08:07;;;;;;;;;;;;;;;5.17;86.76;97750.75;4933851;29;19934;-88
2021/12/28 11:10:32;;;;;;;;;;;;;;;5.16;86.65;97742.06;4933266;29;20378;-90
2021/12/28 11:12:59;;;;;;;;;;;;;;;5.22;86.60;97728.59;4936308;29;19930;-87
2021/12/28 11:15:25;;;;;;;;;;;;;;;7.26;93.42;97724.81;4934189;29;19931;-85
2021/12/28 11:17:51;;;;;;;;;;;;;;;5.93;89.34;97731.72;4933183;29;19929;-88
2021/12/28 11:20:16;;;;;;;;;;;;;;;4.34;88.25;97729.66;4932073;29;19979;-89
2021/12/28 11:23:01;;;;;;;;;;;;;;;3.81;87.02;97732.25;4949795;29;19918;-91
2021/12/28 11:25:28;;;;;;;;;;;;;;;3.48;86.23;97733.81;4933591;29;19923;-88
2021/12/28 11:28:17;;;;;;;;;;;;;;;3.36;85.82;97741.31;4932646;29;20019;-90
2021/12/28 11:31:02;;;;;;;;;;;;;;;3.09;85.12;97732.97;4938663;29;19926;-89
2021/12/28 11:33:41;;;;;;;;;;;;;;;2.91;85.09;97734.66;4952365;28;19922;-92
2021/12/28 11:36:06;;;;;;;;;;;;;;;2.90;85.27;97725.97;4954087;29;19918;-88
2021/12/28 11:38:32;;;;;;;;;;;;;;;2.73;85.29;97718.84;4936940;29;19926;-87
2021/12/28 11:40:57;;;;;;;;;;;;;;;2.64;85.44;97708.78;4953455;28;19969;-87
2021/12/28 11:43:23;;;;;;;;;;;;;;;2.52;85.70;97711.94;4953318;28;19929;-88
2021/12/28 11:45:48;;;;;;;;;;;;;;;2.53;85.84;97713.66;4952825;28;20024;-90
2021/12/28 11:48:13;;;;;;;;;;;;;;;2.48;85.48;97716.44;4935602;29;20277;-89
2021/12/28 11:50:39;;;;;;;;;;;;;;;2.52;85.59;97702.34;4969012;28;20049;-91
2021/12/28 11:53:04;;;;;;;;;;;;;;;2.38;85.66;97699.47;4955840;28;19926;-89
2021/12/28 11:55:29;;;;;;;;;;;;;;;2.36;85.62;97676.03;4954493;28;19930;-88
2021/12/28 11:57:55;;;;;;;;;;;;;;;2.27;85.91;97668.56;4953281;28;19929;-91
2021/12/28 12:00:22;;;;;;;;;;;;;;;2.22;86.05;97672.28;4936355;29;20022;-91
2021/12/28 12:02:49;;;;;;;;;;;;;;;2.18;86.15;97661.13;4953827;28;19927;-89
2021/12/28 12:05:19;;;;;;;;;;;;;;;2.12;86.37;97667.47;4951322;28;19922;-90
2021/12/28 12:07:45;;;;;;;;;;;;;;;2.03;86.73;97664.38;4967578;28;19933;-90
2021/12/28 12:10:16;;;;;;;;;;;;;;;2.06;86.51;97666.84;4952418;28;19973;-90
2021/12/28 12:12:50;;;;;;;;;;;;;;;1.90;86.52;97672.75;4954542;28;19923;-88
2021/12/28 12:15:17;;;;;;;;;;;;;;;1.92;86.99;97676.13;4951120;28;19931;-89
2021/12/28 12:17:44;;;;;;;;;;;;;;;1.90;86.89;97666.66;4953855;28;19978;-90
2021/12/28 12:20:09;;;;;;;;;;;;;;;1.97;87.04;97673.31;4952876;28;19946;-86
2021/12/28 12:22:45;;;;;;;;;;;;;;;1.80;87.05;97666.19;4952001;29;20390;-90
2021/12/28 12:25:12;;;;;;;;;;;;;;;1.85;87.02;97666.00;4950815;28;19954;-92
2021/12/28 12:27:40;;;;;;;;;;;;;;;1.89;87.97;97676.25;4952613;28;20001;-90
2021/12/28 12:30:18;;;;;;;;;;;;;;;2.25;92.57;97677.38;4954144;28;19977;-90
2021/12/28 12:32:58;;;;;;;;;;;;;;;2.78;98.02;97692.50;4948404;29;19930;-90
2021/12/28 12:35:42;;;;;;;;;;;;;;;3.12;100.00;97682.28;4965168;28;20314;-87
2021/12/28 12:38:17;;;;;;;;;;;;;;;3.33;100.00;97681.25;4967397;28;19924;-86
2021/12/28 12:41:00;;;;;;;;;;;;;;;3.52;100.00;97701.34;4967457;28;19922;-85
2021/12/28 12:43:36;;;;;;;;;;;;;;;3.63;100.00;97688.59;4965936;28;19922;-84
2021/12/28 12:46:05;;;;;;;;;;;;;;;3.73;100.00;97681.13;4967462;28;19926;-83
2021/12/28 12:48:30;;;;;;;;;;;;;;;3.80;100.00;97687.78;4966787;28;19970;-87
2021/12/28 12:51:16;;;;;;;;;;;;;;;3.94;100.00;97679.22;4967876;28;19965;-86
2021/12/28 12:53:42;;;;;;;;;;;;;;;4.12;100.00;97683.56;4966571;28;20401;-88
2021/12/28 12:56:27;;;;;;;;;;;;;;;4.27;100.00;97681.09;4968353;28;19926;-87
2021/12/28 12:58:54;;;;;;;;;;;;;;;4.33;100.00;97684.25;4965118;28;19926;-88
2021/12/28 13:01:33;;;;;;;;;;;;;;;4.38;100.00;97681.38;4966121;28;19974;-87
2021/12/28 13:03:59;;;;;;;;;;;;;;;4.39;100.00;97680.47;4957103;28;19922;-89
2021/12/28 13:06:39;;;;;;;;;;;;;;;4.39;100.00;97677.84;4964669;28;20005;-87
2021/12/28 13:09:05;;;;;;;;;;;;;;;4.41;100.00;97685.63;4966371;28;19941;-88
2021/12/28 13:11:32;;;;;;;;;;;;;;;4.34;100.00;97683.31;4965055;28;19918;-90
2021/12/28 13:13:57;;;;;;;;;;;;;;;4.31;100.00;97682.66;4964087;28;19922;-88
2021/12/28 13:16:22;;;;;;;;;;;;;;;4.25;100.00;97693.44;4966157;28;20365;-91
2021/12/28 13:18:47;;;;;;;;;;;;;;;4.16;100.00;97698.22;4965846;28;19923;-85
2021/12/28 13:21:18;;;;;;;;;;;;;;;4.12;100.00;97704.53;4956904;28;19997;-87
2021/12/28 13:24:04;;;;;;;;;;;;;;;4.11;100.00;97713.31;4955935;28;20398;-84
2021/12/28 13:26:40;;;;;;;;;;;;;;;4.28;100.00;97715.09;4966537;28;19962;-88
2021/12/28 13:29:05;;;;;;;;;;;;;;;4.48;100.00;97711.47;4964203;28;19923;-86
2021/12/28 13:31:30;;;;;;;;;;;;;;;4.74;100.00;97680.41;4955796;28;20005;-88
2021/12/28 13:34:00;;;;;;;;;;;;;;;4.97;100.00;97662.59;4954716;29;19922;-84
2021/12/28 13:36:27;;;;;;;;;;;;;;;5.12;100.00;97655.66;4956141;29;20016;-86
2021/12/28 13:39:03;;;;;;;;;;;;;;;5.24;100.00;97658.47;4936991;29;20322;-85
2021/12/28 13:41:29;;;;;;;;;;;;;;;5.35;100.00;97665.75;4954199;29;19957;-89
2021/12/28 13:44:01;;;;;;;;;;;;;;;5.46;100.00;97663.38;4954832;29;19978;-87
2021/12/28 13:46:26;;;;;;;;;;;;;;;5.56;100.00;97665.50;4953177;29;19923;-88
2021/12/28 13:48:53;;;;;;;;;;;;;;;5.58;100.00;97666.25;4955818;29;20282;-88
2021/12/28 13:51:22;;;;;;;;;;;;;;;5.66;100.00;97657.94;4955000;29;19941;-85
2021/12/28 13:53:51;;;;;;;;;;;;;;;5.72;100.00;97655.78;4955021;29;20378;-89
2021/12/28 13:56:21;;;;;;;;;;;;;;;5.81;100.00;97651.81;4952605;29;19962;-90
2021/12/28 13:58:51;;;;;;;;;;;;;;;5.88;100.00;97652.31;4952339;29;19952;-88
2021/12/28 14:01:16;;;;;;;;;;;;;;;5.91;100.00;97645.06;4955177;29;19926;-87
2021/12/28 14:03:42;;;;;;;;;;;;;;;5.94;100.00;97647.53;4955588;29;19930;-90
2021/12/28 14:06:08;;;;;;;;;;;;;;;5.99;100.00;97640.25;4953355;29;19961;-88
2021/12/28 14:08:36;;;;;;;;;;;;;;;6.06;100.00;97661.75;4953028;29;19930;-88
2021/12/28 14:11:02;;;;;;;;;;;;;;;6.09;100.00;97650.22;4953941;29;19984;-83
2021/12/28 14:13:32;;;;;;;;;;;;;;;6.13;100.00;97662.28;4954337;29;19958;-83
2021/12/28 14:16:02;;;;;;;;;;;;;;;6.19;100.00;97648.78;4953131;29;19926;-86
2021/12/28 14:18:31;;;;;;;;;;;;;;;6.25;100.00;97644.91;4953665;28;20329;-83
2021/12/28 14:21:07;;;;;;;;;;;;;;;6.28;100.00;97660.50;4953543;28;20382;-83
2021/12/28 14:23:34;;;;;;;;;;;;;;;6.30;100.00;97677.03;4954195;28;20293;-83
2021/12/28 14:26:04;;;;;;;;;;;;;;;6.31;100.00;97676.13;4955176;28;19938;-88
2021/12/28 14:28:29;;;;;;;;;;;;;;;5.54;100.00;97686.59;4951868;28;19941;-84
2021/12/28 14:31:13;;;;;;;;;;;;;;;5.27;100.00;97708.19;4953859;28;19922;-86
2021/12/28 14:33:46;;;;;;;;;;;;;;;5.14;100.00;97711.53;4939006;28;19926;-86
2021/12/28 14:36:12;;;;;;;;;;;;;;;4.99;100.00;97713.22;4955206;28;19965;-85
2021/12/28 14:38:37;;;;;;;;;;;;;;;4.88;100.00;97719.03;4954492;28;19930;-88
2021/12/28 14:41:02;;;;;;;;;;;;;;;4.80;100.00;97729.09;4939855;29;19926;-87
2021/12/28 14:43:30;;;;;;;;;;;;;;;4.73;100.00;97694.44;4953549;28;19930;-86
2021/12/28 14:45:55;;;;;;;;;;;;;;;4.75;100.00;97716.19;4937347;29;19950;-88
2021/12/28 14:48:21;;;;;;;;;;;;;;;4.67;100.00;97755.94;4954965;28;19927;-85
2021/12/28 14:50:46;;;;;;;;;;;;;;;4.66;100.00;97735.03;4953489;28;20438;-88
2021/12/28 14:53:17;;;;;;;;;;;;;;;4.62;100.00;97751.88;4955054;28;20408;-86
2021/12/28 14:55:43;;;;;;;;;;;;;;;4.54;100.00;97742.63;4954800;28;19933;-87
2021/12/28 14:58:10;;;;;;;;;;;;;;;4.51;100.00;97739.31;4937168;29;19922;-85
2021/12/28 15:00:40;;;;;;;;;;;;;;;4.48;100.00;97742.06;4953347;29;19926;-86
2021/12/28 15:03:06;;;;;;;;;;;;;;;4.48;100.00;97749.94;4953795;28;19926;-84
2021/12/28 15:05:43;;;;;;;;;;;;;;;4.46;99.57;97750.03;4952705;28;19923;-86
2021/12/28 15:08:09;;;;;;;;;;;;;;;4.39;99.08;97748.66;4954826;28;20374;-87
2021/12/28 15:10:37;;;;;;;;;;;;;;;4.32;99.45;97763.84;4952894;28;19933;-87
2021/12/28 15:13:04;;;;;;;;;;;;;;;4.31;99.51;97761.31;4954557;28;19980;-87
2021/12/28 15:15:29;;;;;;;;;;;;;;;4.42;99.10;97764.22;4953300;28;19965;-88
2021/12/28 15:17:55;;;;;;;;;;;;;;;4.38;98.56;97762.69;4936882;29;19935;-87
2021/12/28 15:20:21;;;;;;;;;;;;;;;4.39;98.45;97772.25;4952841;28;19930;-87
2021/12/28 15:22:46;;;;;;;;;;;;;;;4.34;97.65;97777.72;4953502;28;20013;-89
2021/12/28 15:25:14;;;;;;;;;;;;;;;4.28;97.43;97778.03;4952491;28;20703;-86
2021/12/28 15:27:40;;;;;;;;;;;;;;;4.29;97.15;97778.84;4954408;28;19929;-83
2021/12/28 15:30:14;;;;;;;;;;;;;;;4.18;96.94;97793.34;4952990;28;19922;-88
2021/12/28 15:32:40;;;;;;;;;;;;;;;4.07;97.13;97781.69;4967717;28;19922;-84
2021/12/28 15:35:06;;;;;;;;;;;;;;;4.06;97.23;97783.47;4953422;28;19934;-84
2021/12/28 15:37:31;;;;;;;;;;;;;;;4.04;97.28;97795.78;4952354;28;19945;-87
2021/12/28 15:39:56;;;;;;;;;;;;;;;4.00;97.08;97786.38;4952964;29;19993;-86
2021/12/28 15:42:23;;;;;;;;;;;;;;;3.96;96.86;97792.69;4952013;28;21327;-87
2021/12/28 15:44:49;;;;;;;;;;;;;;;3.99;96.82;97790.78;4965823;28;19977;-86
2021/12/28 15:47:14;;;;;;;;;;;;;;;3.97;96.54;97795.25;4954030;29;20297;-85
2021/12/28 15:49:39;;;;;;;;;;;;;;;3.98;96.19;97791.69;4953466;28;19919;-85
2021/12/28 15:52:05;;;;;;;;;;;;;;;3.94;96.04;97794.53;4949057;29;19922;-85
2021/12/28 15:54:30;;;;;;;;;;;;;;;3.91;95.61;97790.28;4955359;28;19922;-87
2021/12/28 15:56:55;;;;;;;;;;;;;;;3.88;95.46;97786.94;4953396;29;19923;-88
2021/12/28 15:59:20;;;;;;;;;;;;;;;3.86;95.25;97796.66;4953967;28;20002;-87
2021/12/28 16:01:46;;;;;;;;;;;;;;;3.85;95.30;97794.97;4949178;28;20495;-87
2021/12/28 16:04:11;;;;;;;;;;;;;;;3.83;95.00;97808.16;4953696;28;19994;-87
2021/12/28 16:06:37;;;;;;;;;;;;;;;3.82;94.72;97812.53;4951283;28;20354;-90
2021/12/28 16:09:03;;;;;;;;;;;;;;;3.83;94.50;97816.00;4953663;28;20347;-89
2021/12/28 16:11:28;;;;;;;;;;;;;;;3.79;94.46;97807.44;4954276;28;20062;-88
2021/12/28 16:13:56;;;;;;;;;;;;;;;3.77;94.13;97824.16;4950824;28;19980;-85
2021/12/28 16:16:21;;;;;;;;;;;;;;;3.79;93.90;97825.75;4952090;28;19923;-89
2021/12/28 16:18:49;;;;;;;;;;;;;;;3.75;93.73;97837.31;4951542;28;19952;-88
2021/12/28 16:21:15;;;;;;;;;;;;;;;3.74;93.53;97838.22;4950452;28;19969;-87
2021/12/28 16:23:40;;;;;;;;;;;;;;;3.72;93.40;97842.69;4953310;28;20085;-88
2021/12/28 16:26:05;;;;;;;;;;;;;;;3.98;93.99;97840.63;4953922;28;20917;-85
2021/12/28 16:28:31;;;;;;;;;;;;;;;3.88;94.05;97847.22;4950861;28;20035;-84
2021/12/28 16:30:56;;;;;;;;;;;;;;;3.87;94.36;97850.78;4953184;28;19926;-83
2021/12/28 16:33:21;;;;;;;;;;;;;;;3.79;94.01;97854.59;4952184;28;19923;-88
2021/12/28 16:35:47;;;;;;;;;;;;;;;3.73;93.83;97856.63;4952002;28;20009;-84
2021/12/28 16:38:12;;;;;;;;;;;;;;;3.76;93.68;97859.97;4953654;28;19932;-84
2021/12/28 16:40:37;;;;;;;;;;;;;;;3.71;93.62;97867.19;4954187;28;19926;-85
2021/12/28 16:43:03;;;;;;;;;;;;;;;3.71;93.49;97867.19;4952349;29;20298;-84
2021/12/28 16:45:29;;;;;;;;;;;;;;;3.67;93.36;97852.53;4934994;28;19998;-86
2021/12/28 16:47:54;;;;;;;;;;;;;;;3.67;93.33;97854.28;4951448;28;19931;-87
2021/12/28 16:50:20;;;;;;;;;;;;;;;3.69;93.31;97860.34;4952792;28;20009;-84
2021/12/28 16:52:46;;;;;;;;;;;;;;;3.70;93.22;97869.88;4966122;28;19969;-84
2021/12/28 16:55:11;;;;;;;;;;;;;;;3.68;93.21;97877.81;4952899;29;19926;-88
2021/12/28 16:57:37;;;;;;;;;;;;;;;4.09;94.52;97863.72;4951769;28;19930;-83
2021/12/28 17:00:07;;;;;;;;;;;;;;;3.93;95.01;97866.22;4951896;29;19922;-83
2021/12/28 17:02:35;;;;;;;;;;;;;;;3.76;94.85;97865.19;4953487;28;19926;-86
2021/12/28 17:05:00;;;;;;;;;;;;;;;3.76;94.42;97865.19;4952271;29;19919;-87
2021/12/28 17:07:26;;;;;;;;;;;;;;;3.71;94.08;97861.94;4949687;28;19977;-85
2021/12/28 17:09:51;;;;;;;;;;;;;;;3.70;93.92;97856.78;4953167;29;19922;-85
2021/12/28 17:12:16;;;;;;;;;;;;;;;3.67;93.82;97868.25;4952071;29;20282;-89
2021/12/28 17:14:42;;;;;;;;;;;;;;;3.68;93.53;97875.19;4951654;28;19919;-88
2021/12/28 17:17:07;;;;;;;;;;;;;;;3.64;93.43;97889.34;4939688;29;19925;-85
2021/12/28 17:19:32;;;;;;;;;;;;;;;3.65;93.31;97888.41;4955362;29;19922;-86
2021/12/28 17:21:58;;;;;;;;;;;;;;;3.62;93.16;97889.41;4955991;29;20328;-86
2021/12/28 17:24:23;;;;;;;;;;;;;;;3.61;93.17;97884.25;4956727;29;19965;-84
2021/12/28 17:26:49;;;;;;;;;;;;;;;3.62;93.28;97867.59;4956841;29;19925;-83
2021/12/28 17:29:14;;;;;;;;;;;;;;;3.64;93.22;97871.03;4953209;29;19956;-83
2021/12/28 17:31:39;;;;;;;;;;;;;;;3.60;93.26;97869.44;4954914;28;20056;-84
2021/12/28 17:34:05;;;;;;;;;;;;;;;3.61;93.38;97855.44;4954875;29;19930;-84
2021/12/28 17:36:31;;;;;;;;;;;;;;;3.61;93.23;97855.44;4954898;29;19969;-82
2021/12/28 17:38:56;;;;;;;;;;;;;;;3.59;93.32;97850.28;4939255;29;20005;-82
2021/12/28 17:41:22;;;;;;;;;;;;;;;3.66;93.23;97855.22;4956429;29;19922;-84
2021/12/28 17:43:47;;;;;;;;;;;;;;;3.59;93.15;97860.75;4953716;29;19919;-86
2021/12/28 17:46:12;;;;;;;;;;;;;;;3.59;93.16;97846.78;4956331;29;20370;-86
2021/12/28 17:48:38;;;;;;;;;;;;;;;3.62;93.29;97847.50;4956098;29;19918;-86
2021/12/28 17:51:03;;;;;;;;;;;;;;;3.64;93.11;97856.16;4955658;29;19922;-87
2021/12/28 17:53:29;;;;;;;;;;;;;;;3.63;92.84;97850.97;4956173;29;19919;-83
2021/12/28 17:55:54;;;;;;;;;;;;;;;3.60;93.01;97869.44;4956199;28;19919;-82
2021/12/28 17:58:19;;;;;;;;;;;;;;;3.65;93.31;97862.22;4955557;29;19925;-82
2021/12/28 18:00:45;;;;;;;;;;;;;;;3.65;93.48;97862.22;4955141;28;19923;-83
2021/12/28 18:03:16;;;;;;;;;;;;;;;3.61;93.28;97861.53;4956134;29;19926;-84
2021/12/28 18:05:42;;;;;;;;;;;;;;;3.62;93.17;97862.34;4955237;29;19926;-88
2021/12/28 18:08:08;;;;;;;;;;;;;;;3.66;93.08;97856.06;4955860;29;19973;-85
2021/12/28 18:10:36;;;;;;;;;;;;;;;3.65;93.05;97872.69;4965345;28;19969;-83
2021/12/28 18:13:01;;;;;;;;;;;;;;;3.67;92.98;97878.75;4973853;28;19918;-87
2021/12/28 18:15:26;;;;;;;;;;;;;;;3.72;93.12;97891.59;4965568;28;19929;-85
2021/12/28 18:17:52;;;;;;;;;;;;;;;3.68;93.19;97892.69;4974996;28;20274;-87
2021/12/28 18:20:17;;;;;;;;;;;;;;;3.68;93.14;97893.53;4974874;28;19964;-87
2021/12/28 18:22:42;;;;;;;;;;;;;;;3.72;93.19;97889.84;4964301;28;19914;-86
2021/12/28 18:25:12;;;;;;;;;;;;;;;3.64;92.97;97881.50;4971893;28;19918;-82
2021/12/28 18:27:39;;;;;;;;;;;;;;;3.64;92.77;97897.22;4973705;28;19993;-83
2021/12/28 18:30:05;;;;;;;;;;;;;;;3.70;92.70;97907.41;4973507;28;20099;-86
2021/12/28 18:32:30;;;;;;;;;;;;;;;3.63;92.66;97911.22;4974861;28;20005;-84
2021/12/28 18:34:56;;;;;;;;;;;;;;;3.65;92.59;97906.75;4964067;28;20282;-87
2021/12/28 18:37:21;;;;;;;;;;;;;;;3.63;92.63;97914.69;4973319;28;19921;-85
2021/12/28 18:39:47;;;;;;;;;;;;;;;3.64;92.66;97921.63;4973799;28;19926;-84
2021/12/28 18:42:12;;;;;;;;;;;;;;;3.64;92.75;97926.03;4957047;28;19915;-87
2021/12/28 18:44:38;;;;;;;;;;;;;;;3.66;92.77;97928.56;4973384;28;19918;-88
2021/12/28 18:47:03;;;;;;;;;;;;;;;3.68;92.83;97939.81;4974679;28;20005;-88
2021/12/28 18:49:29;;;;;;;;;;;;;;;3.66;92.93;97941.66;4973171;28;20041;-87
2021/12/28 18:51:55;;;;;;;;;;;;;;;3.67;92.90;97940.72;4974545;28;19925;-87
2021/12/28 18:54:21;;;;;;;;;;;;;;;3.63;92.66;97942.66;4974288;28;19969;-88
2021/12/28 18:56:47;;;;;;;;;;;;;;;3.60;92.60;97932.31;4974204;28;19926;-84
2021/12/28 18:59:16;;;;;;;;;;;;;;;3.65;92.37;97922.47;4963374;28;19923;-86
2021/12/28 19:01:41;;;;;;;;;;;;;;;3.66;92.18;97929.41;4974231;28;20017;-85
2021/12/28 19:04:06;;;;;;;;;;;;;;;3.63;92.40;97927.78;4974290;28;20005;-85
2021/12/28 19:06:32;;;;;;;;;;;;;;;3.63;92.32;97935.63;4974045;28;19942;-83
2021/12/28 19:08:57;;;;;;;;;;;;;;;3.65;92.19;97925.09;4972468;28;19922;-82
2021/12/28 19:11:23;;;;;;;;;;;;;;;3.66;92.13;97931.19;4974123;28;19918;-83
2021/12/28 19:13:49;;;;;;;;;;;;;;;3.62;92.27;97925.22;4972818;28;19938;-89
2021/12/28 19:16:14;;;;;;;;;;;;;;;3.62;92.26;97933.06;4973849;28;20278;-87
2021/12/28 19:18:41;;;;;;;;;;;;;;;3.66;92.31;97936.44;4973787;28;19925;-82
2021/12/28 19:21:07;;;;;;;;;;;;;;;3.68;92.47;97940.66;4973728;28;19953;-82
2021/12/28 19:23:32;;;;;;;;;;;;;;;3.69;92.43;97934.53;4973645;28;19929;-82
2021/12/28 19:25:58;;;;;;;;;;;;;;;3.68;92.00;97929.34;4973732;28;19917;-83
2021/12/28 19:28:23;;;;;;;;;;;;;;;3.62;91.91;97927.84;4972868;28;20293;-86
2021/12/28 19:30:51;;;;;;;;;;;;;;;3.67;92.25;97936.38;4960451;28;19926;-83
2021/12/28 19:33:17;;;;;;;;;;;;;;;3.66;92.11;97931.19;4954362;29;19918;-85
2021/12/28 19:35:44;;;;;;;;;;;;;;;3.70;92.12;97938.84;4954335;29;20393;-85
2021/12/28 19:38:09;;;;;;;;;;;;;;;3.69;92.08;97946.78;4953027;28;19922;-86
2021/12/28 19:40:35;;;;;;;;;;;;;;;3.64;92.06;97954.84;4953970;28;19929;-83